Latest Coastal Weather Observations for Wilsons Promontory

IDV60701

Issued at 6:05 am EST Friday 25 July 2014 (issued every 10 minutes, with the page automatically refreshed every 10 minutes)

About coastal observations | Map of coastal stations | Coastal observations for VIC | Marine services | Other Formats
Station Details ID: 085096 Name: WILSONS PROMONTORY LIGHTHOUSE Lat: -39.13 Lon: 146.42 Height: 95.0 m
Data from the previous 72 hours. | See also: Recent months at Wilsons Promontory
Date/Time
EST
Temp

°C
Wind Pressure Rain
since 9am
mm
Weather Cloud Vis
km
Sea
Height
m
Swell
Dir
 
Speed
knots
Gust
knots
hPa Trend Height
m
Period
s
Dir
25/06:00am 12.7 N 7 9 1014.3 - 0.4 - - - - - - -
25/05:30am 11.7 N 9 11 1013.8 - 0.4 - - - - - - -
25/05:00am 11.3 N 11 13 1013.7 - 0.4 - - - - - - -
25/04:30am 11.4 NNE 10 15 1013.6 - 0.4 - - - - - - -
25/04:00am 11.4 NNE 11 14 1013.7 - 0.4 - - - - - - -
25/03:30am 11.5 NNE 10 14 1013.9 - 0.4 - - - - - - -
25/03:00am 11.5 NNE 12 14 1013.6 - 0.4 - - - - - - -
25/02:30am 11.4 NNE 10 12 1013.7 - 0.4 - - - - - - -
25/02:00am 11.4 NNE 11 12 1014.0 - 0.4 - - - - - - -
25/01:30am 11.4 NNE 11 14 1014.2 - 0.4 - - - - - - -
25/01:00am 12.0 NNE 14 17 1013.9 - 0.0 - - - - - - -
25/12:30am 11.8 NNE 15 19 1014.0 - 0.0 - - - - - - -
25/12:00am 12.1 NNE 15 19 1014.3 - 0.0 - - - - - - -
 
Date/Time
EST
Temp

°C
Wind Pressure Rain
since 9am
mm
Weather Cloud Vis
km
Sea
Height
m
Swell
Dir
 
Speed
knots
Gust
knots
hPa Trend Height
m
Period
s
Dir
24/11:30pm 11.9 NNE 13 17 1014.6 - 0.0 - - - - - - -
24/11:00pm 12.0 NNE 13 17 1015.0 - 0.0 - - - - - - -
24/10:30pm 12.0 NNE 13 16 1014.9 - 0.0 - - - - - - -
24/10:00pm 12.0 NNE 13 16 1014.9 - 0.0 - - - - - - -
24/09:30pm 12.1 NE 13 15 1015.0 - 0.0 - - - - - - -
24/09:00pm 12.5 NNE 14 18 1015.5 - 0.0 - - - - - - -
24/08:30pm 12.8 NNE 14 17 1015.3 - 0.0 - - - - - - -
24/08:00pm 13.1 NNE 14 18 1015.0 - 0.0 - - - - - - -
24/07:30pm 13.1 NNE 11 13 1014.9 - 0.0 - - - - - - -
24/07:00pm 13.4 NNE 11 15 1014.9 - 0.0 - - - - - - -
24/06:30pm 13.6 NNE 13 17 1014.9 - 0.0 - - - - - - -
24/06:00pm 13.1 NNE 11 14 1015.1 - 0.0 - - - - - - -
24/05:30pm 13.2 NNE 14 20 1015.1 - 0.0 - - - - - - -
24/05:00pm 14.0 N 15 26 1015.1 - 0.0 - - - - - - -
24/04:30pm 12.5 NE 3 5 1015.2 - 0.0 - - - - - - -
24/04:00pm 12.6 WSW 5 8 1015.0 - 0.0 - - - - - - -
24/03:30pm 13.1 NNE 6 7 1014.7 - 0.0 - - - - - - -
24/03:00pm 12.4 NNE 7 8 1014.8 - 0.0 - - - - - - -
24/02:30pm 12.5 NNE 6 8 1014.6 - 0.0 - - - - - - -
24/02:00pm 12.7 NNE 7 8 1014.7 - 0.0 - - - - - - -
24/01:30pm 12.0 NNE 9 10 1014.8 - 0.0 - - - - - - -
24/01:00pm 12.0 NNE 9 10 1015.1 - 0.0 - - - - - - -
24/12:30pm 12.0 NNE 10 11 1015.6 - 0.0 - - - - - - -
24/12:00pm 12.0 NNE 11 13 1016.5 - 0.0 - - - - - - -
24/11:30am 11.7 NNE 13 15 1016.7 - 0.0 - - - - - - -
24/11:00am 12.0 NNE 13 15 1016.8 - 0.0 - - - - - - -
24/10:30am 12.4 NE 12 14 1017.1 - 0.0 - - - - - - -
24/10:00am 12.9 NNE 10 12 1017.1 - 0.0 - - - - - - -
24/09:30am 12.9 NNE 9 11 1017.2 - 0.0 - - - - - - -
24/09:00am 12.5 NNE 9 10 1017.3 - 0.0 - - - - - - -
24/08:30am 11.6 NNE 7 8 1017.2 - 0.0 - - - - - - -
24/08:00am 11.1 NNE 9 10 1017.1 - 0.0 - - - - - - -
24/07:30am 11.0 NNE 9 11 1017.2 - 0.0 - - - - - - -
24/07:00am 11.1 NNE 9 11 1017.2 - 0.0 - - - - - - -
24/06:30am 11.2 N 10 13 1017.1 - 0.0 - - - - - - -
24/06:00am 11.2 NNE 10 13 1017.1 - 0.0 - - - - - - -
24/05:30am 11.3 NNE 9 12 1017.0 - 0.0 - - - - - - -
24/05:00am 11.5 NNE 10 14 1016.9 - 0.0 - - - - - - -
24/04:30am 11.4 NNE 14 17 1016.7 - 0.0 - - - - - - -
24/04:00am 11.4 NNE 15 19 1016.9 - 0.0 - - - - - - -
24/03:30am 11.3 NNE 14 19 1016.9 - 0.0 - - - - - - -
24/03:00am 11.2 NNE 15 21 1017.2 - 0.0 - - - - - - -
24/02:30am 11.2 NNE 16 21 1017.2 - 0.0 - - - - - - -
24/02:00am 11.1 NNE 16 22 1017.4 - 0.0 - - - - - - -
24/01:30am 10.9 NNE 16 22 1017.3 - 0.0 - - - - - - -
24/01:00am 10.8 NNE 18 24 1017.3 - 0.0 - - - - - - -
24/12:30am 10.7 NNE 17 22 1017.7 - 0.0 - - - - - - -
24/12:00am 10.6 NNE 17 24 1018.2 - 0.0 - - - - - - -
 
Date/Time
EST
Temp

°C
Wind Pressure Rain
since 9am
mm
Weather Cloud Vis
km
Sea
Height
m
Swell
Dir
 
Speed
knots
Gust
knots
hPa Trend Height
m
Period
s
Dir
23/11:30pm 10.7 NNE 18 23 1018.5 - 0.0 - - - - - - -
23/11:00pm 10.9 NNE 18 23 1018.9 - 0.0 - - - - - - -
23/10:30pm 11.0 NNE 17 22 1019.3 - 0.0 - - - - - - -
23/10:00pm 11.0 NNE 15 22 1019.8 - 0.0 - - - - - - -
23/09:30pm 10.8 NNE 14 18 1020.0 - 0.0 - - - - - - -
23/09:00pm 10.8 NNE 14 18 1020.3 - 0.0 - - - - - - -
23/08:30pm 10.7 NNE 13 17 1020.2 - 0.0 - - - - - - -
23/08:00pm 10.6 NNE 14 20 1020.1 - 0.0 - - - - - - -
23/07:30pm 10.5 NNE 12 16 1020.0 - 0.0 - - - - - - -
23/07:00pm 10.6 NNE 12 17 1020.2 - 0.0 - - - - - - -
23/06:30pm 10.5 NNE 13 16 1020.1 - 0.0 - - - - - - -
23/06:00pm 10.4 NNE 12 15 1020.1 - 0.0 - - - - - - -
23/05:30pm 10.5 NNE 13 16 1019.9 - 0.0 - - - - - - -
23/05:00pm 10.6 NNE 12 16 1019.7 - 0.0 - - - - - - -
23/04:30pm 10.7 NNE 11 15 1019.7 - 0.0 - - - - - - -
23/04:00pm 10.8 NNE 12 15 1019.9 - 0.0 - - - - - - -
23/03:30pm 10.8 NNE 14 17 1020.1 - 0.0 - - - - - - -
23/03:00pm 11.1 NNE 12 15 1020.1 - 0.0 - - - - - - -
23/02:30pm 11.3 NNE 14 17 1020.0 - 0.0 - - - - - - -
23/02:00pm 11.6 NE 14 17 1020.3 - 0.0 - - - - - - -
23/01:30pm 11.9 NE 12 16 1021.0 - 0.0 - - - - - - -
23/01:00pm 12.3 NE 12 16 1021.4 - 0.0 - - - - - - -
23/12:30pm 12.4 NE 12 16 1021.6 - 0.0 - - - - - - -
23/12:00pm 12.6 NNE 10 14 1022.4 - 0.0 - - - - - - -
23/11:30am 12.6 NNE 11 14 1022.8 - 0.0 - - - - - - -
23/11:00am 12.5 NE 11 14 1023.3 - 0.0 - - - - - - -
23/10:30am 12.4 NE 9 11 1023.4 - 0.0 - - - - - - -
23/10:00am 11.7 NE 7 9 1023.6 - 0.0 - - - - - - -
23/09:30am 11.2 NE 6 7 1023.7 - 0.0 - - - - - - -
23/09:00am 11.7 NE 5 6 1024.0 - - - - - - - - -
23/08:30am 11.1 NNE 5 7 1024.0 - - - - - - - - -
23/08:00am 9.6 NE 6 7 1023.8 - - - - - - - - -
23/07:30am 9.5 NE 6 6 1023.6 - - - - - - - - -
23/07:00am 9.9 ENE 5 6 1023.4 - - - - - - - - -
23/06:30am 9.8 ENE 4 5 1023.4 - - - - - - - - -
23/06:00am 9.9 E 3 4 1023.4 - - - - - - - - -
23/05:30am 9.9 E 4 5 1023.1 - - - - - - - - -
23/05:00am 10.0 SE 3 4 1023.1 - - - - - - - - -
23/04:30am 10.3 ESE 4 5 1023.2 - - - - - - - - -
23/04:00am 10.0 ESE 4 4 1023.4 - - - - - - - - -
23/03:30am 10.1 ESE 4 5 1023.3 - - - - - - - - -
23/03:00am 10.1 NE 1 4 1023.5 - - - - - - - - -
23/02:30am 9.9 CALM 0 0 1023.7 - - - - - - - - -
23/02:00am 9.7 CALM 0 0 1024.0 - - - - - - - - -
23/01:30am 9.8 CALM 0 0 1023.9 - - - - - - - - -
23/01:00am 9.9 CALM 0 0 1024.0 - - - - - - - - -
23/12:30am 9.6 NNE 3 4 1024.0 - - - - - - - - -
23/12:00am 9.7 NE 3 4 1024.2 - - - - - - - - -
 
Date/Time
EST
Temp

°C
Wind Pressure Rain
since 9am
mm
Weather Cloud Vis
km
Sea
Height
m
Swell
Dir
 
Speed
knots
Gust
knots
hPa Trend Height
m
Period
s
Dir
22/11:30pm 9.6 NE 4 4 1024.5 - - - - - - - - -
22/11:00pm 9.6 NE 4 4 1024.7 - - - - - - - - -
22/10:30pm 9.8 NE 3 4 1024.6 - - - - - - - - -
22/10:00pm 10.4 E 4 5 1024.6 - - - - - - - - -
22/09:30pm 10.2 E 3 4 1024.8 - - - - - - - - -
22/09:00pm 10.5 E 2 6 1024.9 - - - - - - - - -
22/08:30pm 10.2 CALM 0 0 1024.7 - - - - - - - - -
22/08:00pm 10.1 CALM 0 0 1024.5 - - - - - - - - -
22/07:30pm 10.2 CALM 0 0 1024.5 - - - - - - - - -
22/07:00pm 10.3 ESE 2 3 1024.6 - - - - - - - - -
22/06:30pm 10.2 CALM 0 0 1024.5 - - - - - - - - -
22/06:00pm 10.1 CALM 0 0 1024.5 - - - - - - - - -
22/05:30pm 10.4 SSW 3 4 1024.3 - - - - - - - - -
22/05:00pm 10.5 W 4 4 1024.2 - - - - - - - - -
22/04:30pm 11.0 W 5 6 1024.2 - - - - - - - - -
22/04:00pm 11.6 WSW 5 6 1024.2 - - - - - - - - -
22/03:30pm 12.0 W 6 7 1024.2 - - - - - - - - -
22/03:00pm 11.6 W 6 7 1024.3 - - - - - - - - -
22/02:30pm 11.4 W 6 9 1024.2 - - - - - - - - -
22/02:00pm 11.6 W 6 8 1024.2 - - - - - - - - -
22/01:30pm 11.9 W 6 8 1024.4 - - - - - - - - -
22/01:00pm 11.9 W 6 7 1024.8 - - - - - - - - -
22/12:00pm 12.0 W 3 6 1025.7 - - - - - - - - -
22/11:30am 12.0 CALM 0 0 1025.7 - - - - - - - - -
22/11:00am 11.9 WSW 4 5 1026.0 - 0.0 - - - - - - -
22/10:30am 12.2 CALM 0 0 1026.0 - 0.0 - - - - - - -
22/10:00am 12.1 WSW 3 4 1026.0 - 0.0 - - - - - - -
22/09:30am 11.3 W 4 4 1026.0 - 0.0 - - - - - - -
22/09:00am 11.4 CALM 0 2 1026.2 - 0.0 - - - - - - -
22/08:30am 10.6 WSW 4 5 1025.8 - 0.0 - - - - - - -
22/08:00am 10.3 CALM 0 0 1025.6 - 0.0 - - - - - - -
22/07:30am 9.7 CALM 0 0 1025.2 - 0.0 - - - - - - -
22/07:00am 9.9 CALM 0 0 1025.1 - 0.0 - - - - - - -
22/06:30am 9.6 CALM 0 0 1024.8 - 0.0 - - - - - - -

Other Formats:

Comma delimited format used in spreadsheet applications
http://www.bom.gov.au/fwo/IDV60701/IDV60701.94893.axf

JavaScript Object Notation format (JSON) in row-major order
http://www.bom.gov.au/fwo/IDV60701/IDV60701.94893.json